sensor_id;sensor_type;location;lat;lon;timestamp;temperature;humidity
35894;DHT22;21994;48.204;16.516;2023-02-01T00:00:35;5.00;99.90
35894;DHT22;21994;48.204;16.516;2023-02-01T00:03:01;5.00;99.90
35894;DHT22;21994;48.204;16.516;2023-02-01T00:05:26;5.00;99.90
35894;DHT22;21994;48.204;16.516;2023-02-01T00:07:53;5.00;99.90
35894;DHT22;21994;48.204;16.516;2023-02-01T00:10:18;5.00;99.90
35894;DHT22;21994;48.204;16.516;2023-02-01T00:12:44;5.00;99.90
35894;DHT22;21994;48.204;16.516;2023-02-01T00:15:10;5.00;99.90
35894;DHT22;21994;48.204;16.516;2023-02-01T00:17:36;5.00;99.90
35894;DHT22;21994;48.204;16.516;2023-02-01T00:20:03;5.00;99.90
35894;DHT22;21994;48.204;16.516;2023-02-01T00:22:29;5.00;99.90
35894;DHT22;21994;48.204;16.516;2023-02-01T00:24:54;5.00;99.90
35894;DHT22;21994;48.204;16.516;2023-02-01T00:27:20;5.00;99.90
35894;DHT22;21994;48.204;16.516;2023-02-01T00:29:46;4.90;99.90
35894;DHT22;21994;48.204;16.516;2023-02-01T00:32:12;4.90;99.90
35894;DHT22;21994;48.204;16.516;2023-02-01T00:34:38;5.00;99.90
35894;DHT22;21994;48.204;16.516;2023-02-01T00:37:04;4.90;99.90
35894;DHT22;21994;48.204;16.516;2023-02-01T00:39:30;5.00;99.90
35894;DHT22;21994;48.204;16.516;2023-02-01T00:41:57;5.00;99.90
35894;DHT22;21994;48.204;16.516;2023-02-01T00:44:25;5.00;99.90
35894;DHT22;21994;48.204;16.516;2023-02-01T00:46:52;5.00;99.90
35894;DHT22;21994;48.204;16.516;2023-02-01T00:49:18;5.10;99.90
35894;DHT22;21994;48.204;16.516;2023-02-01T00:51:44;5.00;99.90
35894;DHT22;21994;48.204;16.516;2023-02-01T00:54:09;5.20;99.90
35894;DHT22;21994;48.204;16.516;2023-02-01T00:56:35;5.10;99.90
35894;DHT22;21994;48.204;16.516;2023-02-01T00:59:01;5.10;99.90
35894;DHT22;21994;48.204;16.516;2023-02-01T01:01:27;5.10;99.90
35894;DHT22;21994;48.204;16.516;2023-02-01T01:03:58;5.10;99.90
35894;DHT22;21994;48.204;16.516;2023-02-01T01:06:29;5.10;99.90
35894;DHT22;21994;48.204;16.516;2023-02-01T01:08:59;5.00;99.90
35894;DHT22;21994;48.204;16.516;2023-02-01T01:11:30;5.10;99.90
35894;DHT22;21994;48.204;16.516;2023-02-01T01:13:57;5.10;99.90
35894;DHT22;21994;48.204;16.516;2023-02-01T01:16:25;5.10;99.90
35894;DHT22;21994;48.204;16.516;2023-02-01T01:18:52;5.10;99.90
35894;DHT22;21994;48.204;16.516;2023-02-01T01:21:19;5.10;99.90
35894;DHT22;21994;48.204;16.516;2023-02-01T01:23:46;5.10;99.90
35894;DHT22;21994;48.204;16.516;2023-02-01T01:26:15;5.10;99.90
35894;DHT22;21994;48.204;16.516;2023-02-01T01:28:45;5.20;99.90
35894;DHT22;21994;48.204;16.516;2023-02-01T01:31:13;5.20;99.90
35894;DHT22;21994;48.204;16.516;2023-02-01T01:33:40;5.20;99.90
35894;DHT22;21994;48.204;16.516;2023-02-01T01:36:07;5.20;99.90
35894;DHT22;21994;48.204;16.516;2023-02-01T01:38:38;5.20;99.90
35894;DHT22;21994;48.204;16.516;2023-02-01T01:41:04;5.30;99.90
35894;DHT22;21994;48.204;16.516;2023-02-01T01:43:47;5.30;99.90
35894;DHT22;21994;48.204;16.516;2023-02-01T01:46:23;5.30;99.90
35894;DHT22;21994;48.204;16.516;2023-02-01T01:49:15;5.30;99.90
35894;DHT22;21994;48.204;16.516;2023-02-01T01:51:44;5.20;99.90
35894;DHT22;21994;48.204;16.516;2023-02-01T01:54:25;5.20;99.90
35894;DHT22;21994;48.204;16.516;2023-02-01T01:56:58;5.20;99.90
35894;DHT22;21994;48.204;16.516;2023-02-01T01:59:27;5.10;99.90
35894;DHT22;21994;48.204;16.516;2023-02-01T02:01:53;5.20;99.90
35894;DHT22;21994;48.204;16.516;2023-02-01T02:04:20;5.20;99.90
35894;DHT22;21994;48.204;16.516;2023-02-01T02:09:18;5.30;99.90
35894;DHT22;21994;48.204;16.516;2023-02-01T02:11:44;5.30;99.90
35894;DHT22;21994;48.204;16.516;2023-02-01T02:14:12;5.30;99.90
35894;DHT22;21994;48.204;16.516;2023-02-01T02:32:28;5.40;99.90
35894;DHT22;21994;48.204;16.516;2023-02-01T02:35:30;5.40;99.90
35894;DHT22;21994;48.204;16.516;2023-02-01T02:43:44;5.40;99.90
35894;DHT22;21994;48.204;16.516;2023-02-01T02:46:46;5.50;99.90
35894;DHT22;21994;48.204;16.516;2023-02-01T02:49:36;5.40;99.90
35894;DHT22;21994;48.204;16.516;2023-02-01T02:52:16;5.40;99.90
35894;DHT22;21994;48.204;16.516;2023-02-01T02:55:03;5.40;99.90
35894;DHT22;21994;48.204;16.516;2023-02-01T02:57:42;5.50;99.90
35894;DHT22;21994;48.204;16.516;2023-02-01T03:00:30;5.50;99.90
35894;DHT22;21994;48.204;16.516;2023-02-01T03:03:16;5.50;99.90
35894;DHT22;21994;48.204;16.516;2023-02-01T03:06:01;5.50;99.90
35894;DHT22;21994;48.204;16.516;2023-02-01T03:08:28;5.50;99.90
35894;DHT22;21994;48.204;16.516;2023-02-01T03:11:06;5.50;99.90
35894;DHT22;21994;48.204;16.516;2023-02-01T03:13:45;5.50;99.90
35894;DHT22;21994;48.204;16.516;2023-02-01T03:19:24;5.40;99.90
35894;DHT22;21994;48.204;16.516;2023-02-01T03:22:08;5.40;99.90
35894;DHT22;21994;48.204;16.516;2023-02-01T03:24:53;5.40;99.90
35894;DHT22;21994;48.204;16.516;2023-02-01T03:30:22;5.40;99.90
35894;DHT22;21994;48.204;16.516;2023-02-01T03:32:57;5.40;99.90
35894;DHT22;21994;48.204;16.516;2023-02-01T03:35:44;5.40;99.90
35894;DHT22;21994;48.204;16.516;2023-02-01T03:46:59;5.30;99.90
35894;DHT22;21994;48.204;16.516;2023-02-01T03:49:35;5.40;99.90
35894;DHT22;21994;48.204;16.516;2023-02-01T03:52:05;5.40;99.90
35894;DHT22;21994;48.204;16.516;2023-02-01T03:54:32;5.40;99.90
35894;DHT22;21994;48.204;16.516;2023-02-01T03:57:02;5.40;99.90
35894;DHT22;21994;48.204;16.516;2023-02-01T03:59:32;5.40;99.90
35894;DHT22;21994;48.204;16.516;2023-02-01T04:01:57;5.40;99.90
35894;DHT22;21994;48.204;16.516;2023-02-01T04:04:23;5.40;99.90
35894;DHT22;21994;48.204;16.516;2023-02-01T04:06:50;5.40;99.90
35894;DHT22;21994;48.204;16.516;2023-02-01T04:09:16;5.40;99.90
35894;DHT22;21994;48.204;16.516;2023-02-01T04:11:42;5.50;99.90
35894;DHT22;21994;48.204;16.516;2023-02-01T04:14:08;5.40;99.90
35894;DHT22;21994;48.204;16.516;2023-02-01T04:16:35;5.40;99.90
35894;DHT22;21994;48.204;16.516;2023-02-01T04:19:01;5.40;99.90
35894;DHT22;21994;48.204;16.516;2023-02-01T04:21:28;5.40;99.90
35894;DHT22;21994;48.204;16.516;2023-02-01T04:23:54;5.40;99.90
35894;DHT22;21994;48.204;16.516;2023-02-01T04:26:20;5.40;99.90
35894;DHT22;21994;48.204;16.516;2023-02-01T04:28:47;5.40;99.90
35894;DHT22;21994;48.204;16.516;2023-02-01T04:31:17;5.30;99.90
35894;DHT22;21994;48.204;16.516;2023-02-01T04:33:49;5.40;99.90
35894;DHT22;21994;48.204;16.516;2023-02-01T04:36:16;5.40;99.90
35894;DHT22;21994;48.204;16.516;2023-02-01T04:38:45;5.40;99.90
35894;DHT22;21994;48.204;16.516;2023-02-01T04:41:11;5.40;99.90
35894;DHT22;21994;48.204;16.516;2023-02-01T04:43:36;5.40;99.90
35894;DHT22;21994;48.204;16.516;2023-02-01T04:46:02;5.40;99.90
35894;DHT22;21994;48.204;16.516;2023-02-01T04:48:30;5.40;99.90
35894;DHT22;21994;48.204;16.516;2023-02-01T04:50:56;5.40;99.90
35894;DHT22;21994;48.204;16.516;2023-02-01T04:53:22;5.50;99.90
35894;DHT22;21994;48.204;16.516;2023-02-01T04:55:49;5.40;99.90
35894;DHT22;21994;48.204;16.516;2023-02-01T04:58:15;5.40;99.90
35894;DHT22;21994;48.204;16.516;2023-02-01T05:00:41;5.50;99.90
35894;DHT22;21994;48.204;16.516;2023-02-01T05:03:07;5.50;99.90
35894;DHT22;21994;48.204;16.516;2023-02-01T05:05:33;5.50;99.90
35894;DHT22;21994;48.204;16.516;2023-02-01T05:07:59;5.50;99.90
35894;DHT22;21994;48.204;16.516;2023-02-01T05:10:24;5.50;99.90
35894;DHT22;21994;48.204;16.516;2023-02-01T05:12:50;5.50;99.90
35894;DHT22;21994;48.204;16.516;2023-02-01T05:15:34;5.50;99.90
35894;DHT22;21994;48.204;16.516;2023-02-01T05:18:00;5.50;99.90
35894;DHT22;21994;48.204;16.516;2023-02-01T05:20:26;5.60;99.90
35894;DHT22;21994;48.204;16.516;2023-02-01T05:22:52;5.60;99.90
35894;DHT22;21994;48.204;16.516;2023-02-01T05:25:18;5.60;99.90
35894;DHT22;21994;48.204;16.516;2023-02-01T05:27:44;5.60;99.90
35894;DHT22;21994;48.204;16.516;2023-02-01T05:30:11;5.70;99.90
35894;DHT22;21994;48.204;16.516;2023-02-01T05:32:37;5.70;99.90
35894;DHT22;21994;48.204;16.516;2023-02-01T05:35:03;5.70;99.90
35894;DHT22;21994;48.204;16.516;2023-02-01T05:37:29;5.70;99.90
35894;DHT22;21994;48.204;16.516;2023-02-01T05:39:55;5.70;99.90
35894;DHT22;21994;48.204;16.516;2023-02-01T05:42:21;5.70;99.90
35894;DHT22;21994;48.204;16.516;2023-02-01T05:44:47;5.80;99.90
35894;DHT22;21994;48.204;16.516;2023-02-01T05:47:13;5.80;99.90
35894;DHT22;21994;48.204;16.516;2023-02-01T05:49:39;5.70;99.90
35894;DHT22;21994;48.204;16.516;2023-02-01T05:52:05;5.70;99.90
35894;DHT22;21994;48.204;16.516;2023-02-01T05:54:31;5.70;99.90
35894;DHT22;21994;48.204;16.516;2023-02-01T05:56:57;5.70;99.90
35894;DHT22;21994;48.204;16.516;2023-02-01T05:59:23;5.80;99.90
35894;DHT22;21994;48.204;16.516;2023-02-01T06:01:49;5.80;99.90
35894;DHT22;21994;48.204;16.516;2023-02-01T06:04:15;5.70;99.90
35894;DHT22;21994;48.204;16.516;2023-02-01T06:06:41;5.70;99.90
35894;DHT22;21994;48.204;16.516;2023-02-01T06:09:09;5.70;99.90
35894;DHT22;21994;48.204;16.516;2023-02-01T06:11:35;5.70;99.90
35894;DHT22;21994;48.204;16.516;2023-02-01T06:14:01;5.70;99.90
35894;DHT22;21994;48.204;16.516;2023-02-01T06:16:27;5.80;99.90
35894;DHT22;21994;48.204;16.516;2023-02-01T06:18:53;5.80;99.90
35894;DHT22;21994;48.204;16.516;2023-02-01T06:21:19;5.80;99.90
35894;DHT22;21994;48.204;16.516;2023-02-01T06:23:55;5.70;99.90
35894;DHT22;21994;48.204;16.516;2023-02-01T06:26:22;5.80;99.90
35894;DHT22;21994;48.204;16.516;2023-02-01T06:28:49;5.80;99.90
35894;DHT22;21994;48.204;16.516;2023-02-01T06:31:15;5.90;99.90
35894;DHT22;21994;48.204;16.516;2023-02-01T06:33:42;5.90;99.90
35894;DHT22;21994;48.204;16.516;2023-02-01T06:36:10;5.90;99.90
35894;DHT22;21994;48.204;16.516;2023-02-01T06:38:37;5.90;99.90
35894;DHT22;21994;48.204;16.516;2023-02-01T06:41:05;6.00;99.90
35894;DHT22;21994;48.204;16.516;2023-02-01T06:43:31;6.00;99.90
35894;DHT22;21994;48.204;16.516;2023-02-01T06:46:01;6.10;99.90
35894;DHT22;21994;48.204;16.516;2023-02-01T06:48:30;6.10;99.90
35894;DHT22;21994;48.204;16.516;2023-02-01T06:50:56;6.20;99.90
35894;DHT22;21994;48.204;16.516;2023-02-01T06:53:22;6.20;99.90
35894;DHT22;21994;48.204;16.516;2023-02-01T06:55:58;6.20;99.90
35894;DHT22;21994;48.204;16.516;2023-02-01T06:58:29;6.30;99.90
35894;DHT22;21994;48.204;16.516;2023-02-01T07:00:56;6.20;99.90
35894;DHT22;21994;48.204;16.516;2023-02-01T07:03:22;6.30;99.90
35894;DHT22;21994;48.204;16.516;2023-02-01T07:05:48;6.20;99.90
35894;DHT22;21994;48.204;16.516;2023-02-01T07:08:13;6.30;99.90
35894;DHT22;21994;48.204;16.516;2023-02-01T07:10:39;6.30;99.90
35894;DHT22;21994;48.204;16.516;2023-02-01T07:13:05;6.30;99.90
35894;DHT22;21994;48.204;16.516;2023-02-01T07:15:31;6.20;99.90
35894;DHT22;21994;48.204;16.516;2023-02-01T07:17:57;6.20;99.90
35894;DHT22;21994;48.204;16.516;2023-02-01T07:20:23;6.20;99.90
35894;DHT22;21994;48.204;16.516;2023-02-01T07:22:54;6.20;99.90
35894;DHT22;21994;48.204;16.516;2023-02-01T07:25:22;6.20;99.90
35894;DHT22;21994;48.204;16.516;2023-02-01T07:27:48;6.20;99.90
35894;DHT22;21994;48.204;16.516;2023-02-01T07:30:14;6.20;99.90
35894;DHT22;21994;48.204;16.516;2023-02-01T07:32:40;6.30;99.90
35894;DHT22;21994;48.204;16.516;2023-02-01T07:35:06;6.30;99.90
35894;DHT22;21994;48.204;16.516;2023-02-01T07:37:32;6.30;99.90
35894;DHT22;21994;48.204;16.516;2023-02-01T07:39:58;6.30;99.90
35894;DHT22;21994;48.204;16.516;2023-02-01T07:42:24;6.40;99.90
35894;DHT22;21994;48.204;16.516;2023-02-01T07:44:50;6.40;99.90
35894;DHT22;21994;48.204;16.516;2023-02-01T07:47:15;6.40;99.90
35894;DHT22;21994;48.204;16.516;2023-02-01T07:49:41;6.40;99.90
35894;DHT22;21994;48.204;16.516;2023-02-01T07:52:07;6.40;99.90
35894;DHT22;21994;48.204;16.516;2023-02-01T07:54:33;6.40;99.90
35894;DHT22;21994;48.204;16.516;2023-02-01T07:56:59;6.50;99.90
35894;DHT22;21994;48.204;16.516;2023-02-01T07:59:25;6.50;99.90
35894;DHT22;21994;48.204;16.516;2023-02-01T08:01:51;6.60;99.90
35894;DHT22;21994;48.204;16.516;2023-02-01T08:04:16;6.70;99.90
35894;DHT22;21994;48.204;16.516;2023-02-01T08:06:42;6.70;99.90
35894;DHT22;21994;48.204;16.516;2023-02-01T08:09:08;6.80;99.90
35894;DHT22;21994;48.204;16.516;2023-02-01T08:11:35;6.80;99.90
35894;DHT22;21994;48.204;16.516;2023-02-01T08:14:04;6.80;99.90
35894;DHT22;21994;48.204;16.516;2023-02-01T08:16:30;6.80;99.90
35894;DHT22;21994;48.204;16.516;2023-02-01T08:18:56;6.80;99.90
35894;DHT22;21994;48.204;16.516;2023-02-01T08:21:25;6.80;99.90
35894;DHT22;21994;48.204;16.516;2023-02-01T08:23:53;6.80;99.90
35894;DHT22;21994;48.204;16.516;2023-02-01T08:26:24;6.70;99.90
35894;DHT22;21994;48.204;16.516;2023-02-01T08:28:54;6.80;99.90
35894;DHT22;21994;48.204;16.516;2023-02-01T08:31:23;6.80;99.90
35894;DHT22;21994;48.204;16.516;2023-02-01T08:33:52;6.90;99.90
35894;DHT22;21994;48.204;16.516;2023-02-01T08:36:20;7.00;99.90
35894;DHT22;21994;48.204;16.516;2023-02-01T08:38:46;7.00;99.90
35894;DHT22;21994;48.204;16.516;2023-02-01T08:41:14;7.00;99.90
35894;DHT22;21994;48.204;16.516;2023-02-01T08:43:42;7.10;99.90
35894;DHT22;21994;48.204;16.516;2023-02-01T08:46:10;7.20;99.90
35894;DHT22;21994;48.204;16.516;2023-02-01T08:48:37;7.20;99.90
35894;DHT22;21994;48.204;16.516;2023-02-01T08:51:05;7.30;99.90
35894;DHT22;21994;48.204;16.516;2023-02-01T08:53:36;7.20;99.90
35894;DHT22;21994;48.204;16.516;2023-02-01T08:56:07;7.20;99.90
35894;DHT22;21994;48.204;16.516;2023-02-01T08:58:34;7.20;99.90
35894;DHT22;21994;48.204;16.516;2023-02-01T09:01:04;7.10;99.90
35894;DHT22;21994;48.204;16.516;2023-02-01T09:03:31;7.20;99.90
35894;DHT22;21994;48.204;16.516;2023-02-01T09:06:05;7.20;99.90
35894;DHT22;21994;48.204;16.516;2023-02-01T09:08:36;7.20;99.90
35894;DHT22;21994;48.204;16.516;2023-02-01T09:11:08;7.20;99.90
35894;DHT22;21994;48.204;16.516;2023-02-01T09:13:37;7.20;99.90
35894;DHT22;21994;48.204;16.516;2023-02-01T09:16:03;7.20;99.90
35894;DHT22;21994;48.204;16.516;2023-02-01T09:18:29;7.20;99.90
35894;DHT22;21994;48.204;16.516;2023-02-01T09:20:55;7.30;99.90
35894;DHT22;21994;48.204;16.516;2023-02-01T09:23:21;7.20;99.90
35894;DHT22;21994;48.204;16.516;2023-02-01T09:25:47;7.20;99.90
35894;DHT22;21994;48.204;16.516;2023-02-01T09:28:17;7.10;99.90
35894;DHT22;21994;48.204;16.516;2023-02-01T09:30:43;7.00;99.90
35894;DHT22;21994;48.204;16.516;2023-02-01T09:33:09;6.90;99.90
35894;DHT22;21994;48.204;16.516;2023-02-01T09:35:35;6.80;99.90
35894;DHT22;21994;48.204;16.516;2023-02-01T09:38:01;6.80;99.90
35894;DHT22;21994;48.204;16.516;2023-02-01T09:40:26;6.80;99.90
35894;DHT22;21994;48.204;16.516;2023-02-01T09:48:34;6.70;99.90
35894;DHT22;21994;48.204;16.516;2023-02-01T09:51:06;6.70;99.90
35894;DHT22;21994;48.204;16.516;2023-02-01T09:53:42;6.60;99.90
35894;DHT22;21994;48.204;16.516;2023-02-01T09:56:24;6.50;99.90
35894;DHT22;21994;48.204;16.516;2023-02-01T09:58:59;6.40;99.90
35894;DHT22;21994;48.204;16.516;2023-02-01T10:01:27;6.40;99.90
35894;DHT22;21994;48.204;16.516;2023-02-01T10:04:13;6.30;99.90
35894;DHT22;21994;48.204;16.516;2023-02-01T10:15:34;6.70;99.90
35894;DHT22;21994;48.204;16.516;2023-02-01T10:21:01;7.00;99.90
35894;DHT22;21994;48.204;16.516;2023-02-01T10:24:00;7.10;99.90
35894;DHT22;21994;48.204;16.516;2023-02-01T10:26:45;7.30;99.90
35894;DHT22;21994;48.204;16.516;2023-02-01T10:29:20;7.60;99.90
35894;DHT22;21994;48.204;16.516;2023-02-01T10:31:47;7.60;99.90
35894;DHT22;21994;48.204;16.516;2023-02-01T10:34:26;7.60;99.90
35894;DHT22;21994;48.204;16.516;2023-02-01T10:36:57;7.50;99.90
35894;DHT22;21994;48.204;16.516;2023-02-01T10:39:26;7.70;99.90
35894;DHT22;21994;48.204;16.516;2023-02-01T10:41:54;7.80;99.90
35894;DHT22;21994;48.204;16.516;2023-02-01T10:44:27;7.90;99.90
35894;DHT22;21994;48.204;16.516;2023-02-01T10:46:54;7.90;99.90
35894;DHT22;21994;48.204;16.516;2023-02-01T10:49:29;7.90;99.90
35894;DHT22;21994;48.204;16.516;2023-02-01T10:52:15;8.00;99.90
35894;DHT22;21994;48.204;16.516;2023-02-01T10:54:43;8.00;99.90
35894;DHT22;21994;48.204;16.516;2023-02-01T10:57:20;7.90;99.90
35894;DHT22;21994;48.204;16.516;2023-02-01T10:59:52;7.70;99.90
35894;DHT22;21994;48.204;16.516;2023-02-01T11:02:34;7.60;99.90
35894;DHT22;21994;48.204;16.516;2023-02-01T11:05:19;7.60;99.90
35894;DHT22;21994;48.204;16.516;2023-02-01T11:07:53;7.30;99.90
35894;DHT22;21994;48.204;16.516;2023-02-01T11:10:39;7.10;99.90
35894;DHT22;21994;48.204;16.516;2023-02-01T11:13:15;7.40;99.90
35894;DHT22;21994;48.204;16.516;2023-02-01T11:15:46;8.20;99.90
35894;DHT22;21994;48.204;16.516;2023-02-01T11:18:27;8.10;99.90
35894;DHT22;21994;48.204;16.516;2023-02-01T11:20:55;7.90;99.90
35894;DHT22;21994;48.204;16.516;2023-02-01T11:23:25;7.50;99.90
35894;DHT22;21994;48.204;16.516;2023-02-01T11:26:12;7.00;99.90
35894;DHT22;21994;48.204;16.516;2023-02-01T11:28:44;6.70;99.90
35894;DHT22;21994;48.204;16.516;2023-02-01T11:31:16;6.60;99.90
35894;DHT22;21994;48.204;16.516;2023-02-01T11:33:50;6.50;99.90
35894;DHT22;21994;48.204;16.516;2023-02-01T11:36:23;6.40;99.90
35894;DHT22;21994;48.204;16.516;2023-02-01T11:41:57;6.10;99.90
35894;DHT22;21994;48.204;16.516;2023-02-01T11:44:45;5.90;99.90
35894;DHT22;21994;48.204;16.516;2023-02-01T11:47:28;5.80;99.90
35894;DHT22;21994;48.204;16.516;2023-02-01T11:50:01;5.70;99.90
35894;DHT22;21994;48.204;16.516;2023-02-01T11:55:47;5.40;99.90
35894;DHT22;21994;48.204;16.516;2023-02-01T11:58:40;5.30;99.90
35894;DHT22;21994;48.204;16.516;2023-02-01T12:01:26;5.30;99.90
35894;DHT22;21994;48.204;16.516;2023-02-01T12:07:00;5.20;99.90
35894;DHT22;21994;48.204;16.516;2023-02-01T12:09:55;5.20;99.90
35894;DHT22;21994;48.204;16.516;2023-02-01T12:18:54;5.00;99.90
35894;DHT22;21994;48.204;16.516;2023-02-01T12:30:52;5.20;99.90
35894;DHT22;21994;48.204;16.516;2023-02-01T12:36:18;5.40;99.90
35894;DHT22;21994;48.204;16.516;2023-02-01T12:41:45;6.00;99.90
35894;DHT22;21994;48.204;16.516;2023-02-01T12:44:40;6.50;99.90
35894;DHT22;21994;48.204;16.516;2023-02-01T12:47:35;6.90;99.90
35894;DHT22;21994;48.204;16.516;2023-02-01T12:52:48;6.60;99.90
35894;DHT22;21994;48.204;16.516;2023-02-01T12:55:32;6.40;99.90
35894;DHT22;21994;48.204;16.516;2023-02-01T12:58:26;6.40;99.90
35894;DHT22;21994;48.204;16.516;2023-02-01T13:01:01;6.40;99.90
35894;DHT22;21994;48.204;16.516;2023-02-01T13:03:44;6.50;99.90
35894;DHT22;21994;48.204;16.516;2023-02-01T13:11:53;7.60;99.90
35894;DHT22;21994;48.204;16.516;2023-02-01T13:14:47;7.90;99.90
35894;DHT22;21994;48.204;16.516;2023-02-01T13:17:21;7.90;99.90
35894;DHT22;21994;48.204;16.516;2023-02-01T13:20:05;8.10;99.90
35894;DHT22;21994;48.204;16.516;2023-02-01T13:22:40;8.30;99.90
35894;DHT22;21994;48.204;16.516;2023-02-01T13:25:21;8.40;99.90
35894;DHT22;21994;48.204;16.516;2023-02-01T13:28:00;8.50;99.90
35894;DHT22;21994;48.204;16.516;2023-02-01T13:30:38;8.50;99.90
35894;DHT22;21994;48.204;16.516;2023-02-01T13:36:22;8.60;99.90
35894;DHT22;21994;48.204;16.516;2023-02-01T13:41:58;8.70;99.90
35894;DHT22;21994;48.204;16.516;2023-02-01T13:44:45;8.70;99.90
35894;DHT22;21994;48.204;16.516;2023-02-01T13:49:42;8.90;99.90
35894;DHT22;21994;48.204;16.516;2023-02-01T13:52:24;9.00;99.90
35894;DHT22;21994;48.204;16.516;2023-02-01T14:00:41;8.90;99.90
35894;DHT22;21994;48.204;16.516;2023-02-01T14:03:21;8.80;99.90
35894;DHT22;21994;48.204;16.516;2023-02-01T14:08:36;8.90;99.90
35894;DHT22;21994;48.204;16.516;2023-02-01T14:11:04;8.90;99.90
35894;DHT22;21994;48.204;16.516;2023-02-01T14:13:31;8.90;99.90
35894;DHT22;21994;48.204;16.516;2023-02-01T14:21:31;9.00;99.90
35894;DHT22;21994;48.204;16.516;2023-02-01T14:26:46;9.10;99.90
35894;DHT22;21994;48.204;16.516;2023-02-01T14:32:15;8.40;99.90
35894;DHT22;21994;48.204;16.516;2023-02-01T14:34:54;8.20;99.90
35894;DHT22;21994;48.204;16.516;2023-02-01T14:37:25;8.00;99.90
35894;DHT22;21994;48.204;16.516;2023-02-01T14:40:38;7.80;99.90
35894;DHT22;21994;48.204;16.516;2023-02-01T14:47:52;7.40;99.90
35894;DHT22;21994;48.204;16.516;2023-02-01T14:50:48;7.40;99.90
35894;DHT22;21994;48.204;16.516;2023-02-01T14:53:21;7.20;99.90
35894;DHT22;21994;48.204;16.516;2023-02-01T14:56:11;7.10;99.90
35894;DHT22;21994;48.204;16.516;2023-02-01T15:01:32;6.90;99.90
35894;DHT22;21994;48.204;16.516;2023-02-01T15:04:09;6.80;99.90
35894;DHT22;21994;48.204;16.516;2023-02-01T15:06:47;6.80;99.90
35894;DHT22;21994;48.204;16.516;2023-02-01T15:09:18;6.70;99.90
35894;DHT22;21994;48.204;16.516;2023-02-01T15:12:17;6.60;99.90
35894;DHT22;21994;48.204;16.516;2023-02-01T15:15:10;6.50;99.90
35894;DHT22;21994;48.204;16.516;2023-02-01T15:17:40;6.40;99.90
35894;DHT22;21994;48.204;16.516;2023-02-01T15:22:59;6.30;99.90
35894;DHT22;21994;48.204;16.516;2023-02-01T15:27:57;6.30;99.90
35894;DHT22;21994;48.204;16.516;2023-02-01T15:30:26;6.20;99.90
35894;DHT22;21994;48.204;16.516;2023-02-01T15:35:44;6.30;99.90
35894;DHT22;21994;48.204;16.516;2023-02-01T15:38:44;6.30;99.90
35894;DHT22;21994;48.204;16.516;2023-02-01T15:41:15;6.20;99.90
35894;DHT22;21994;48.204;16.516;2023-02-01T15:48:59;6.20;99.90
35894;DHT22;21994;48.204;16.516;2023-02-01T15:51:28;6.20;99.90
35894;DHT22;21994;48.204;16.516;2023-02-01T15:54:07;6.10;99.90
35894;DHT22;21994;48.204;16.516;2023-02-01T15:56:51;6.10;99.90
35894;DHT22;21994;48.204;16.516;2023-02-01T15:59:21;6.10;99.90
35894;DHT22;21994;48.204;16.516;2023-02-01T16:01:49;6.10;99.90
35894;DHT22;21994;48.204;16.516;2023-02-01T16:04:21;6.00;99.90
35894;DHT22;21994;48.204;16.516;2023-02-01T16:06:59;6.00;99.90
35894;DHT22;21994;48.204;16.516;2023-02-01T16:09:40;6.00;99.90
35894;DHT22;21994;48.204;16.516;2023-02-01T16:12:32;6.00;99.90
35894;DHT22;21994;48.204;16.516;2023-02-01T16:15:10;6.00;99.90
35894;DHT22;21994;48.204;16.516;2023-02-01T16:17:38;6.00;99.90
35894;DHT22;21994;48.204;16.516;2023-02-01T16:20:04;6.10;99.90
35894;DHT22;21994;48.204;16.516;2023-02-01T16:22:31;6.10;99.90
35894;DHT22;21994;48.204;16.516;2023-02-01T16:24:57;6.00;99.90
35894;DHT22;21994;48.204;16.516;2023-02-01T16:27:23;6.00;99.90
35894;DHT22;21994;48.204;16.516;2023-02-01T16:29:49;6.00;99.90
35894;DHT22;21994;48.204;16.516;2023-02-01T16:32:20;6.00;99.90
35894;DHT22;21994;48.204;16.516;2023-02-01T16:34:46;6.00;99.90
35894;DHT22;21994;48.204;16.516;2023-02-01T16:37:19;6.10;99.90
35894;DHT22;21994;48.204;16.516;2023-02-01T16:39:46;6.20;99.90
35894;DHT22;21994;48.204;16.516;2023-02-01T16:42:13;6.20;99.90
35894;DHT22;21994;48.204;16.516;2023-02-01T16:44:40;6.20;99.90
35894;DHT22;21994;48.204;16.516;2023-02-01T16:47:18;6.20;99.90
35894;DHT22;21994;48.204;16.516;2023-02-01T16:49:46;6.20;99.90
35894;DHT22;21994;48.204;16.516;2023-02-01T16:52:18;6.20;99.90
35894;DHT22;21994;48.204;16.516;2023-02-01T16:54:46;6.20;99.90
35894;DHT22;21994;48.204;16.516;2023-02-01T16:57:15;6.20;99.90
35894;DHT22;21994;48.204;16.516;2023-02-01T16:59:46;6.20;99.90
35894;DHT22;21994;48.204;16.516;2023-02-01T17:02:19;6.20;99.90
35894;DHT22;21994;48.204;16.516;2023-02-01T17:04:46;6.20;99.90
35894;DHT22;21994;48.204;16.516;2023-02-01T17:07:18;6.20;99.90
35894;DHT22;21994;48.204;16.516;2023-02-01T17:09:47;6.20;99.90
35894;DHT22;21994;48.204;16.516;2023-02-01T17:12:25;6.20;99.90
35894;DHT22;21994;48.204;16.516;2023-02-01T17:14:53;6.20;99.90
35894;DHT22;21994;48.204;16.516;2023-02-01T17:17:20;6.20;99.90
35894;DHT22;21994;48.204;16.516;2023-02-01T17:19:51;6.20;99.90
35894;DHT22;21994;48.204;16.516;2023-02-01T17:22:22;6.20;99.90
35894;DHT22;21994;48.204;16.516;2023-02-01T17:24:49;6.20;99.90
35894;DHT22;21994;48.204;16.516;2023-02-01T17:27:16;6.10;99.90
35894;DHT22;21994;48.204;16.516;2023-02-01T17:29:42;6.30;99.90
35894;DHT22;21994;48.204;16.516;2023-02-01T17:32:16;6.20;99.90
35894;DHT22;21994;48.204;16.516;2023-02-01T17:34:46;6.20;99.90
35894;DHT22;21994;48.204;16.516;2023-02-01T17:37:25;6.10;99.90
35894;DHT22;21994;48.204;16.516;2023-02-01T17:39:55;6.10;99.90
35894;DHT22;21994;48.204;16.516;2023-02-01T17:42:23;6.10;99.90
35894;DHT22;21994;48.204;16.516;2023-02-01T17:44:52;6.10;99.90
35894;DHT22;21994;48.204;16.516;2023-02-01T17:47:21;6.10;99.90
35894;DHT22;21994;48.204;16.516;2023-02-01T17:49:47;6.10;99.90
35894;DHT22;21994;48.204;16.516;2023-02-01T17:52:17;6.00;99.90
35894;DHT22;21994;48.204;16.516;2023-02-01T17:54:43;6.10;99.90
35894;DHT22;21994;48.204;16.516;2023-02-01T17:57:12;6.10;99.90
35894;DHT22;21994;48.204;16.516;2023-02-01T17:59:38;6.20;99.90
35894;DHT22;21994;48.204;16.516;2023-02-01T18:02:22;6.10;99.90
35894;DHT22;21994;48.204;16.516;2023-02-01T18:04:49;6.10;99.90
35894;DHT22;21994;48.204;16.516;2023-02-01T18:07:16;6.00;99.90
35894;DHT22;21994;48.204;16.516;2023-02-01T18:09:44;6.00;99.90
35894;DHT22;21994;48.204;16.516;2023-02-01T18:12:28;6.00;99.90
35894;DHT22;21994;48.204;16.516;2023-02-01T18:14:59;6.10;99.90
35894;DHT22;21994;48.204;16.516;2023-02-01T18:17:25;6.10;99.90
35894;DHT22;21994;48.204;16.516;2023-02-01T18:19:50;6.10;99.90